sensor_id;sensor_type;location;lat;lon;timestamp;temperature;humidity
4406;DHT22;2216;53.806;11.598;2023-08-01T00:00:50;17.30;66.30
4406;DHT22;2216;53.806;11.598;2023-08-01T00:03:15;17.20;66.00
4406;DHT22;2216;53.806;11.598;2023-08-01T00:05:41;17.20;66.10
4406;DHT22;2216;53.806;11.598;2023-08-01T00:08:11;17.20;66.10
4406;DHT22;2216;53.806;11.598;2023-08-01T00:10:40;17.10;66.00
4406;DHT22;2216;53.806;11.598;2023-08-01T00:13:06;17.20;66.00
4406;DHT22;2216;53.806;11.598;2023-08-01T00:15:33;17.10;66.00
4406;DHT22;2216;53.806;11.598;2023-08-01T00:17:58;17.10;66.10
4406;DHT22;2216;53.806;11.598;2023-08-01T00:20:24;17.10;66.10
4406;DHT22;2216;53.806;11.598;2023-08-01T00:22:50;17.10;66.10
4406;DHT22;2216;53.806;11.598;2023-08-01T00:25:17;17.10;66.20
4406;DHT22;2216;53.806;11.598;2023-08-01T00:27:43;17.10;66.20
4406;DHT22;2216;53.806;11.598;2023-08-01T00:30:09;17.10;66.10
4406;DHT22;2216;53.806;11.598;2023-08-01T00:32:36;17.10;66.10
4406;DHT22;2216;53.806;11.598;2023-08-01T00:35:02;17.10;66.10
4406;DHT22;2216;53.806;11.598;2023-08-01T00:37:29;17.10;66.10
4406;DHT22;2216;53.806;11.598;2023-08-01T00:39:54;17.00;66.10
4406;DHT22;2216;53.806;11.598;2023-08-01T00:42:20;17.10;66.10
4406;DHT22;2216;53.806;11.598;2023-08-01T00:44:46;17.00;66.00
4406;DHT22;2216;53.806;11.598;2023-08-01T00:47:14;17.00;66.10
4406;DHT22;2216;53.806;11.598;2023-08-01T00:49:40;17.00;66.10
4406;DHT22;2216;53.806;11.598;2023-08-01T00:52:07;17.00;66.20
4406;DHT22;2216;53.806;11.598;2023-08-01T00:54:34;17.00;66.20
4406;DHT22;2216;53.806;11.598;2023-08-01T00:57:03;16.90;66.10
4406;DHT22;2216;53.806;11.598;2023-08-01T00:59:29;16.90;66.10
4406;DHT22;2216;53.806;11.598;2023-08-01T01:01:55;16.90;66.10
4406;DHT22;2216;53.806;11.598;2023-08-01T01:04:22;16.90;66.10
4406;DHT22;2216;53.806;11.598;2023-08-01T01:06:52;16.90;66.20
4406;DHT22;2216;53.806;11.598;2023-08-01T01:09:20;16.90;66.20
4406;DHT22;2216;53.806;11.598;2023-08-01T01:11:46;16.90;66.20
4406;DHT22;2216;53.806;11.598;2023-08-01T01:14:12;16.90;66.20
4406;DHT22;2216;53.806;11.598;2023-08-01T01:16:38;16.90;66.20
4406;DHT22;2216;53.806;11.598;2023-08-01T01:19:08;16.80;66.10
4406;DHT22;2216;53.806;11.598;2023-08-01T01:21:35;16.80;66.20
4406;DHT22;2216;53.806;11.598;2023-08-01T01:24:04;16.90;66.30
4406;DHT22;2216;53.806;11.598;2023-08-01T01:26:32;16.80;66.30
4406;DHT22;2216;53.806;11.598;2023-08-01T01:28:58;16.80;66.20
4406;DHT22;2216;53.806;11.598;2023-08-01T01:31:25;16.90;66.30
4406;DHT22;2216;53.806;11.598;2023-08-01T01:33:52;16.80;66.40
4406;DHT22;2216;53.806;11.598;2023-08-01T01:36:18;16.80;66.30
4406;DHT22;2216;53.806;11.598;2023-08-01T01:38:43;16.80;66.40
4406;DHT22;2216;53.806;11.598;2023-08-01T01:41:09;16.90;66.40
4406;DHT22;2216;53.806;11.598;2023-08-01T01:43:36;16.80;66.40
4406;DHT22;2216;53.806;11.598;2023-08-01T01:46:03;16.80;66.50
4406;DHT22;2216;53.806;11.598;2023-08-01T01:48:29;16.90;66.60
4406;DHT22;2216;53.806;11.598;2023-08-01T01:50:54;16.80;66.60
4406;DHT22;2216;53.806;11.598;2023-08-01T01:53:20;16.90;66.60
4406;DHT22;2216;53.806;11.598;2023-08-01T01:55:46;16.90;66.70
4406;DHT22;2216;53.806;11.598;2023-08-01T01:58:11;16.90;66.70
4406;DHT22;2216;53.806;11.598;2023-08-01T02:00:37;16.90;66.70
4406;DHT22;2216;53.806;11.598;2023-08-01T02:03:03;17.00;66.90
4406;DHT22;2216;53.806;11.598;2023-08-01T02:05:29;17.00;66.80
4406;DHT22;2216;53.806;11.598;2023-08-01T02:07:55;17.00;66.70
4406;DHT22;2216;53.806;11.598;2023-08-01T02:10:21;17.00;66.60
4406;DHT22;2216;53.806;11.598;2023-08-01T02:12:47;17.10;66.90
4406;DHT22;2216;53.806;11.598;2023-08-01T02:15:12;17.00;66.70
4406;DHT22;2216;53.806;11.598;2023-08-01T02:17:39;17.10;66.80
4406;DHT22;2216;53.806;11.598;2023-08-01T02:20:05;17.10;66.80
4406;DHT22;2216;53.806;11.598;2023-08-01T02:22:32;17.20;66.80
4406;DHT22;2216;53.806;11.598;2023-08-01T02:24:58;17.10;66.70
4406;DHT22;2216;53.806;11.598;2023-08-01T02:27:23;17.20;67.50
4406;DHT22;2216;53.806;11.598;2023-08-01T02:29:49;17.20;66.80
4406;DHT22;2216;53.806;11.598;2023-08-01T02:32:16;17.20;67.40
4406;DHT22;2216;53.806;11.598;2023-08-01T02:34:42;17.20;66.60
4406;DHT22;2216;53.806;11.598;2023-08-01T02:37:08;17.20;66.70
4406;DHT22;2216;53.806;11.598;2023-08-01T02:39:34;17.30;66.70
4406;DHT22;2216;53.806;11.598;2023-08-01T02:42:00;17.30;66.70
4406;DHT22;2216;53.806;11.598;2023-08-01T02:44:26;17.20;66.70
4406;DHT22;2216;53.806;11.598;2023-08-01T02:46:52;17.30;66.60
4406;DHT22;2216;53.806;11.598;2023-08-01T02:49:17;17.20;66.60
4406;DHT22;2216;53.806;11.598;2023-08-01T02:51:43;17.20;66.60
4406;DHT22;2216;53.806;11.598;2023-08-01T02:54:09;17.20;66.60
4406;DHT22;2216;53.806;11.598;2023-08-01T02:56:34;17.20;66.60
4406;DHT22;2216;53.806;11.598;2023-08-01T02:59:00;17.20;66.50
4406;DHT22;2216;53.806;11.598;2023-08-01T03:01:26;17.30;66.60
4406;DHT22;2216;53.806;11.598;2023-08-01T03:03:51;17.20;66.50
4406;DHT22;2216;53.806;11.598;2023-08-01T03:06:17;17.20;66.50
4406;DHT22;2216;53.806;11.598;2023-08-01T03:08:43;17.20;66.40
4406;DHT22;2216;53.806;11.598;2023-08-01T03:11:09;17.20;66.40
4406;DHT22;2216;53.806;11.598;2023-08-01T03:13:34;17.10;67.10
4406;DHT22;2216;53.806;11.598;2023-08-01T03:16:00;17.20;66.40
4406;DHT22;2216;53.806;11.598;2023-08-01T03:18:26;17.20;66.40
4406;DHT22;2216;53.806;11.598;2023-08-01T03:20:52;17.20;66.40
4406;DHT22;2216;53.806;11.598;2023-08-01T03:23:17;17.20;66.40
4406;DHT22;2216;53.806;11.598;2023-08-01T03:25:43;17.20;66.50
4406;DHT22;2216;53.806;11.598;2023-08-01T03:28:09;17.10;66.40
4406;DHT22;2216;53.806;11.598;2023-08-01T03:30:35;17.20;66.50
4406;DHT22;2216;53.806;11.598;2023-08-01T03:37:27;17.20;66.60
4406;DHT22;2216;53.806;11.598;2023-08-01T03:40:00;17.20;66.50
4406;DHT22;2216;53.806;11.598;2023-08-01T03:42:25;17.20;66.50
4406;DHT22;2216;53.806;11.598;2023-08-01T03:44:51;17.20;67.30
4406;DHT22;2216;53.806;11.598;2023-08-01T03:47:16;17.20;66.60
4406;DHT22;2216;53.806;11.598;2023-08-01T03:49:42;17.20;66.60
4406;DHT22;2216;53.806;11.598;2023-08-01T03:52:08;17.20;66.60
4406;DHT22;2216;53.806;11.598;2023-08-01T03:54:34;17.20;66.60
4406;DHT22;2216;53.806;11.598;2023-08-01T03:57:00;17.20;66.80
4406;DHT22;2216;53.806;11.598;2023-08-01T03:59:27;17.20;66.70
4406;DHT22;2216;53.806;11.598;2023-08-01T04:01:53;17.20;66.80
4406;DHT22;2216;53.806;11.598;2023-08-01T04:04:19;17.20;66.60
4406;DHT22;2216;53.806;11.598;2023-08-01T04:06:45;17.20;66.60
4406;DHT22;2216;53.806;11.598;2023-08-01T04:09:11;17.20;66.60
4406;DHT22;2216;53.806;11.598;2023-08-01T04:11:36;17.20;66.60
4406;DHT22;2216;53.806;11.598;2023-08-01T04:14:02;17.20;66.60
4406;DHT22;2216;53.806;11.598;2023-08-01T04:16:28;17.20;66.60
4406;DHT22;2216;53.806;11.598;2023-08-01T04:18:53;17.20;66.60
4406;DHT22;2216;53.806;11.598;2023-08-01T04:21:19;17.20;66.70
4406;DHT22;2216;53.806;11.598;2023-08-01T04:23:45;17.20;66.70
4406;DHT22;2216;53.806;11.598;2023-08-01T04:26:10;17.20;66.70
4406;DHT22;2216;53.806;11.598;2023-08-01T04:28:36;17.20;66.70
4406;DHT22;2216;53.806;11.598;2023-08-01T04:31:02;17.20;66.70
4406;DHT22;2216;53.806;11.598;2023-08-01T04:33:27;17.20;66.70
4406;DHT22;2216;53.806;11.598;2023-08-01T04:35:53;17.20;66.70
4406;DHT22;2216;53.806;11.598;2023-08-01T04:38:19;17.20;66.60
4406;DHT22;2216;53.806;11.598;2023-08-01T04:40:45;17.20;66.70
4406;DHT22;2216;53.806;11.598;2023-08-01T04:43:11;17.20;66.70
4406;DHT22;2216;53.806;11.598;2023-08-01T04:45:39;17.30;66.70
4406;DHT22;2216;53.806;11.598;2023-08-01T04:48:04;17.30;66.70
4406;DHT22;2216;53.806;11.598;2023-08-01T04:50:30;17.30;66.70
4406;DHT22;2216;53.806;11.598;2023-08-01T04:52:56;17.30;66.70
4406;DHT22;2216;53.806;11.598;2023-08-01T04:55:21;17.30;66.70
4406;DHT22;2216;53.806;11.598;2023-08-01T04:57:47;17.30;66.70
4406;DHT22;2216;53.806;11.598;2023-08-01T05:00:13;17.30;66.70
4406;DHT22;2216;53.806;11.598;2023-08-01T05:02:39;17.30;66.70
4406;DHT22;2216;53.806;11.598;2023-08-01T05:05:05;17.30;66.70
4406;DHT22;2216;53.806;11.598;2023-08-01T05:07:31;17.30;66.80
4406;DHT22;2216;53.806;11.598;2023-08-01T05:09:57;17.30;66.90
4406;DHT22;2216;53.806;11.598;2023-08-01T05:12:22;17.40;66.90
4406;DHT22;2216;53.806;11.598;2023-08-01T05:14:48;17.40;66.90
4406;DHT22;2216;53.806;11.598;2023-08-01T05:17:14;17.40;66.90
4406;DHT22;2216;53.806;11.598;2023-08-01T05:19:39;17.40;66.90
4406;DHT22;2216;53.806;11.598;2023-08-01T05:22:05;17.40;66.90
4406;DHT22;2216;53.806;11.598;2023-08-01T05:24:31;17.50;67.20
4406;DHT22;2216;53.806;11.598;2023-08-01T05:26:56;17.50;67.00
4406;DHT22;2216;53.806;11.598;2023-08-01T05:29:22;17.50;67.20
4406;DHT22;2216;53.806;11.598;2023-08-01T05:31:48;17.50;67.10
4406;DHT22;2216;53.806;11.598;2023-08-01T05:34:14;17.50;67.00
4406;DHT22;2216;53.806;11.598;2023-08-01T05:36:39;17.50;67.20
4406;DHT22;2216;53.806;11.598;2023-08-01T05:39:05;17.50;67.00
4406;DHT22;2216;53.806;11.598;2023-08-01T05:41:31;17.50;67.00
4406;DHT22;2216;53.806;11.598;2023-08-01T05:43:57;17.60;67.10
4406;DHT22;2216;53.806;11.598;2023-08-01T05:46:23;17.60;67.10
4406;DHT22;2216;53.806;11.598;2023-08-01T05:48:49;17.60;67.00
4406;DHT22;2216;53.806;11.598;2023-08-01T05:51:14;17.60;67.00
4406;DHT22;2216;53.806;11.598;2023-08-01T05:53:40;17.60;67.10
4406;DHT22;2216;53.806;11.598;2023-08-01T05:56:06;17.60;67.00
4406;DHT22;2216;53.806;11.598;2023-08-01T05:58:31;17.60;67.00
4406;DHT22;2216;53.806;11.598;2023-08-01T06:00:57;17.70;67.00
4406;DHT22;2216;53.806;11.598;2023-08-01T06:03:23;17.70;67.20
4406;DHT22;2216;53.806;11.598;2023-08-01T06:05:49;17.70;67.10
4406;DHT22;2216;53.806;11.598;2023-08-01T06:08:15;17.70;67.10
4406;DHT22;2216;53.806;11.598;2023-08-01T06:10:44;17.80;67.30
4406;DHT22;2216;53.806;11.598;2023-08-01T06:13:09;17.80;67.30
4406;DHT22;2216;53.806;11.598;2023-08-01T06:15:35;17.80;67.20
4406;DHT22;2216;53.806;11.598;2023-08-01T06:18:01;17.80;67.50
4406;DHT22;2216;53.806;11.598;2023-08-01T06:20:27;17.80;67.40
4406;DHT22;2216;53.806;11.598;2023-08-01T06:22:53;17.90;67.50
4406;DHT22;2216;53.806;11.598;2023-08-01T06:25:18;17.90;67.50
4406;DHT22;2216;53.806;11.598;2023-08-01T06:27:45;17.90;68.30
4406;DHT22;2216;53.806;11.598;2023-08-01T06:30:11;18.00;67.60
4406;DHT22;2216;53.806;11.598;2023-08-01T06:32:36;18.00;67.50
4406;DHT22;2216;53.806;11.598;2023-08-01T06:35:02;18.10;67.50
4406;DHT22;2216;53.806;11.598;2023-08-01T06:37:28;18.10;67.50
4406;DHT22;2216;53.806;11.598;2023-08-01T06:39:55;18.10;67.50
4406;DHT22;2216;53.806;11.598;2023-08-01T06:42:20;18.20;67.50
4406;DHT22;2216;53.806;11.598;2023-08-01T06:44:46;18.20;67.70
4406;DHT22;2216;53.806;11.598;2023-08-01T06:47:12;18.30;68.00
4406;DHT22;2216;53.806;11.598;2023-08-01T06:49:37;18.40;67.80
4406;DHT22;2216;53.806;11.598;2023-08-01T06:52:03;18.50;67.90
4406;DHT22;2216;53.806;11.598;2023-08-01T06:54:29;18.50;67.90
4406;DHT22;2216;53.806;11.598;2023-08-01T06:56:55;18.60;68.00
4406;DHT22;2216;53.806;11.598;2023-08-01T06:59:21;18.70;68.10
4406;DHT22;2216;53.806;11.598;2023-08-01T07:01:46;18.70;67.90
4406;DHT22;2216;53.806;11.598;2023-08-01T07:04:13;18.80;67.80
4406;DHT22;2216;53.806;11.598;2023-08-01T07:06:40;18.90;67.70
4406;DHT22;2216;53.806;11.598;2023-08-01T07:09:06;18.90;67.70
4406;DHT22;2216;53.806;11.598;2023-08-01T07:11:32;19.00;67.70
4406;DHT22;2216;53.806;11.598;2023-08-01T07:13:58;19.10;67.60
4406;DHT22;2216;53.806;11.598;2023-08-01T07:16:24;19.10;67.50
4406;DHT22;2216;53.806;11.598;2023-08-01T07:18:50;19.20;68.30
4406;DHT22;2216;53.806;11.598;2023-08-01T07:21:16;19.20;67.50
4406;DHT22;2216;53.806;11.598;2023-08-01T07:23:42;19.20;67.30
4406;DHT22;2216;53.806;11.598;2023-08-01T07:26:08;19.20;67.40
4406;DHT22;2216;53.806;11.598;2023-08-01T07:28:34;19.20;67.30
4406;DHT22;2216;53.806;11.598;2023-08-01T07:31:02;19.30;67.20
4406;DHT22;2216;53.806;11.598;2023-08-01T07:33:30;19.30;67.10
4406;DHT22;2216;53.806;11.598;2023-08-01T07:35:56;19.30;67.00
4406;DHT22;2216;53.806;11.598;2023-08-01T07:38:22;19.20;66.80
4406;DHT22;2216;53.806;11.598;2023-08-01T07:40:48;19.20;66.70
4406;DHT22;2216;53.806;11.598;2023-08-01T07:43:14;19.20;66.60
4406;DHT22;2216;53.806;11.598;2023-08-01T07:45:39;19.10;66.50
4406;DHT22;2216;53.806;11.598;2023-08-01T07:48:05;19.10;66.60
4406;DHT22;2216;53.806;11.598;2023-08-01T07:50:31;19.00;66.50
4406;DHT22;2216;53.806;11.598;2023-08-01T07:52:56;19.00;66.60
4406;DHT22;2216;53.806;11.598;2023-08-01T07:55:23;19.00;66.60
4406;DHT22;2216;53.806;11.598;2023-08-01T07:57:48;19.00;66.70
4406;DHT22;2216;53.806;11.598;2023-08-01T08:00:14;19.00;66.70
4406;DHT22;2216;53.806;11.598;2023-08-01T08:02:44;19.00;66.70
4406;DHT22;2216;53.806;11.598;2023-08-01T08:05:10;19.00;66.70
4406;DHT22;2216;53.806;11.598;2023-08-01T08:07:37;19.00;66.90
4406;DHT22;2216;53.806;11.598;2023-08-01T08:10:04;19.00;67.00
4406;DHT22;2216;53.806;11.598;2023-08-01T08:12:30;19.00;67.10
4406;DHT22;2216;53.806;11.598;2023-08-01T08:14:56;19.10;67.20
4406;DHT22;2216;53.806;11.598;2023-08-01T08:17:21;19.10;67.20
4406;DHT22;2216;53.806;11.598;2023-08-01T08:19:47;19.20;67.20
4406;DHT22;2216;53.806;11.598;2023-08-01T08:22:13;19.10;67.00
4406;DHT22;2216;53.806;11.598;2023-08-01T08:24:38;19.20;67.00
4406;DHT22;2216;53.806;11.598;2023-08-01T08:27:04;19.20;66.90
4406;DHT22;2216;53.806;11.598;2023-08-01T08:29:32;19.20;66.80
4406;DHT22;2216;53.806;11.598;2023-08-01T08:31:58;19.10;66.50
4406;DHT22;2216;53.806;11.598;2023-08-01T08:34:23;19.00;66.40
4406;DHT22;2216;53.806;11.598;2023-08-01T08:36:49;19.00;66.30
4406;DHT22;2216;53.806;11.598;2023-08-01T08:39:17;18.90;66.40
4406;DHT22;2216;53.806;11.598;2023-08-01T08:41:48;18.80;66.30
4406;DHT22;2216;53.806;11.598;2023-08-01T08:44:16;18.80;66.50
4406;DHT22;2216;53.806;11.598;2023-08-01T08:46:52;18.80;66.80
4406;DHT22;2216;53.806;11.598;2023-08-01T08:49:22;18.80;66.90
4406;DHT22;2216;53.806;11.598;2023-08-01T08:51:49;18.80;67.20
4406;DHT22;2216;53.806;11.598;2023-08-01T08:54:19;18.80;67.20
4406;DHT22;2216;53.806;11.598;2023-08-01T08:56:46;18.80;67.30
4406;DHT22;2216;53.806;11.598;2023-08-01T08:59:12;18.80;67.30
4406;DHT22;2216;53.806;11.598;2023-08-01T09:01:38;18.90;67.50
4406;DHT22;2216;53.806;11.598;2023-08-01T09:04:05;19.00;67.80
4406;DHT22;2216;53.806;11.598;2023-08-01T09:06:35;19.00;67.70
4406;DHT22;2216;53.806;11.598;2023-08-01T09:09:13;19.10;67.70
4406;DHT22;2216;53.806;11.598;2023-08-01T09:11:47;19.10;67.60
4406;DHT22;2216;53.806;11.598;2023-08-01T09:14:14;19.20;67.60
4406;DHT22;2216;53.806;11.598;2023-08-01T09:16:41;19.30;67.60
4406;DHT22;2216;53.806;11.598;2023-08-01T09:19:08;19.30;67.60
4406;DHT22;2216;53.806;11.598;2023-08-01T09:21:35;19.40;67.90
4406;DHT22;2216;53.806;11.598;2023-08-01T09:24:12;19.50;68.10
4406;DHT22;2216;53.806;11.598;2023-08-01T09:26:38;19.70;68.20
4406;DHT22;2216;53.806;11.598;2023-08-01T09:29:04;19.80;68.20
4406;DHT22;2216;53.806;11.598;2023-08-01T09:31:35;19.90;68.20
4406;DHT22;2216;53.806;11.598;2023-08-01T09:34:03;20.10;68.50
4406;DHT22;2216;53.806;11.598;2023-08-01T09:36:33;20.30;68.80
4406;DHT22;2216;53.806;11.598;2023-08-01T09:39:03;20.50;68.80
4406;DHT22;2216;53.806;11.598;2023-08-01T09:41:30;20.70;68.40
4406;DHT22;2216;53.806;11.598;2023-08-01T09:43:56;20.80;68.10
4406;DHT22;2216;53.806;11.598;2023-08-01T09:46:23;20.90;67.90
4406;DHT22;2216;53.806;11.598;2023-08-01T09:48:50;21.00;67.80
4406;DHT22;2216;53.806;11.598;2023-08-01T09:51:17;21.10;67.60
4406;DHT22;2216;53.806;11.598;2023-08-01T09:53:55;21.10;67.60
4406;DHT22;2216;53.806;11.598;2023-08-01T09:56:30;21.20;67.60
4406;DHT22;2216;53.806;11.598;2023-08-01T09:58:56;21.30;67.30
4406;DHT22;2216;53.806;11.598;2023-08-01T10:01:25;21.30;67.20
4406;DHT22;2216;53.806;11.598;2023-08-01T10:03:53;21.40;67.20
4406;DHT22;2216;53.806;11.598;2023-08-01T10:06:24;21.50;67.20
4406;DHT22;2216;53.806;11.598;2023-08-01T10:08:51;21.50;67.20
4406;DHT22;2216;53.806;11.598;2023-08-01T10:11:22;21.50;67.00
4406;DHT22;2216;53.806;11.598;2023-08-01T10:13:48;21.60;67.00
4406;DHT22;2216;53.806;11.598;2023-08-01T10:16:15;21.70;67.40
4406;DHT22;2216;53.806;11.598;2023-08-01T10:18:42;21.80;67.70
4406;DHT22;2216;53.806;11.598;2023-08-01T10:21:16;22.00;68.00
4406;DHT22;2216;53.806;11.598;2023-08-01T10:23:43;22.20;68.10
4406;DHT22;2216;53.806;11.598;2023-08-01T10:26:11;22.40;68.30
4406;DHT22;2216;53.806;11.598;2023-08-01T10:28:38;22.60;68.30
4406;DHT22;2216;53.806;11.598;2023-08-01T10:31:16;22.80;67.90
4406;DHT22;2216;53.806;11.598;2023-08-01T10:33:49;22.90;67.60
4406;DHT22;2216;53.806;11.598;2023-08-01T10:36:23;23.10;67.40
4406;DHT22;2216;53.806;11.598;2023-08-01T10:38:53;23.20;67.10
4406;DHT22;2216;53.806;11.598;2023-08-01T10:44:05;23.30;66.40
4406;DHT22;2216;53.806;11.598;2023-08-01T10:46:54;23.40;66.70
4406;DHT22;2216;53.806;11.598;2023-08-01T10:49:39;23.50;66.70
4406;DHT22;2216;53.806;11.598;2023-08-01T10:52:17;23.50;66.60
4406;DHT22;2216;53.806;11.598;2023-08-01T10:55:02;23.70;66.70
4406;DHT22;2216;53.806;11.598;2023-08-01T10:57:30;23.80;66.70
4406;DHT22;2216;53.806;11.598;2023-08-01T10:59:58;23.90;66.40
4406;DHT22;2216;53.806;11.598;2023-08-01T11:02:28;23.90;66.00
4406;DHT22;2216;53.806;11.598;2023-08-01T11:04:59;23.90;65.90
4406;DHT22;2216;53.806;11.598;2023-08-01T11:07:25;23.90;66.10
4406;DHT22;2216;53.806;11.598;2023-08-01T11:10:11;24.00;67.10
4406;DHT22;2216;53.806;11.598;2023-08-01T11:12:41;24.20;66.60
4406;DHT22;2216;53.806;11.598;2023-08-01T11:15:10;24.40;66.90
4406;DHT22;2216;53.806;11.598;2023-08-01T11:17:43;24.50;66.80
4406;DHT22;2216;53.806;11.598;2023-08-01T11:20:12;24.70;66.90
4406;DHT22;2216;53.806;11.598;2023-08-01T11:22:58;24.90;66.70
4406;DHT22;2216;53.806;11.598;2023-08-01T11:25:41;25.00;66.10
4406;DHT22;2216;53.806;11.598;2023-08-01T11:28:17;25.10;66.50
4406;DHT22;2216;53.806;11.598;2023-08-01T11:30:43;25.20;66.00
4406;DHT22;2216;53.806;11.598;2023-08-01T11:33:15;25.30;66.10
4406;DHT22;2216;53.806;11.598;2023-08-01T11:35:46;25.40;65.90
4406;DHT22;2216;53.806;11.598;2023-08-01T11:38:20;25.50;65.90
4406;DHT22;2216;53.806;11.598;2023-08-01T11:40:47;25.50;64.90
4406;DHT22;2216;53.806;11.598;2023-08-01T11:43:15;25.50;64.70
4406;DHT22;2216;53.806;11.598;2023-08-01T11:48:16;25.20;63.80
4406;DHT22;2216;53.806;11.598;2023-08-01T11:50:43;25.10;63.90
4406;DHT22;2216;53.806;11.598;2023-08-01T11:53:22;25.00;64.00
4406;DHT22;2216;53.806;11.598;2023-08-01T11:55:49;24.90;63.80
4406;DHT22;2216;53.806;11.598;2023-08-01T11:58:31;24.70;63.50
4406;DHT22;2216;53.806;11.598;2023-08-01T12:01:10;24.50;63.50
4406;DHT22;2216;53.806;11.598;2023-08-01T12:03:50;24.40;63.70
4406;DHT22;2216;53.806;11.598;2023-08-01T12:06:18;24.30;63.60
4406;DHT22;2216;53.806;11.598;2023-08-01T12:08:47;24.10;63.10
4406;DHT22;2216;53.806;11.598;2023-08-01T12:11:28;23.90;62.70
4406;DHT22;2216;53.806;11.598;2023-08-01T12:14:11;23.60;62.60
4406;DHT22;2216;53.806;11.598;2023-08-01T12:16:46;23.20;62.30
4406;DHT22;2216;53.806;11.598;2023-08-01T12:19:19;22.90;62.30
4406;DHT22;2216;53.806;11.598;2023-08-01T12:21:46;22.60;62.30
4406;DHT22;2216;53.806;11.598;2023-08-01T12:24:12;22.30;62.50
4406;DHT22;2216;53.806;11.598;2023-08-01T12:26:38;22.00;62.50
4406;DHT22;2216;53.806;11.598;2023-08-01T12:29:03;21.70;62.70
4406;DHT22;2216;53.806;11.598;2023-08-01T12:31:29;21.50;62.90
4406;DHT22;2216;53.806;11.598;2023-08-01T12:33:55;21.30;63.20
4406;DHT22;2216;53.806;11.598;2023-08-01T12:36:21;21.10;63.50
4406;DHT22;2216;53.806;11.598;2023-08-01T12:38:47;21.00;64.10
4406;DHT22;2216;53.806;11.598;2023-08-01T12:41:13;21.00;65.00
4406;DHT22;2216;53.806;11.598;2023-08-01T12:43:38;21.00;65.70
4406;DHT22;2216;53.806;11.598;2023-08-01T12:46:04;21.20;66.70
4406;DHT22;2216;53.806;11.598;2023-08-01T12:48:30;21.50;67.40
4406;DHT22;2216;53.806;11.598;2023-08-01T12:50:56;21.80;67.90
4406;DHT22;2216;53.806;11.598;2023-08-01T12:53:22;22.00;67.70
4406;DHT22;2216;53.806;11.598;2023-08-01T12:55:50;22.30;67.40
4406;DHT22;2216;53.806;11.598;2023-08-01T12:58:16;22.40;66.80
4406;DHT22;2216;53.806;11.598;2023-08-01T13:00:43;22.60;66.30
4406;DHT22;2216;53.806;11.598;2023-08-01T13:03:10;22.60;65.60
4406;DHT22;2216;53.806;11.598;2023-08-01T13:05:37;22.60;64.80
4406;DHT22;2216;53.806;11.598;2023-08-01T13:08:04;22.50;64.10
4406;DHT22;2216;53.806;11.598;2023-08-01T13:10:34;22.30;63.70
4406;DHT22;2216;53.806;11.598;2023-08-01T13:13:02;22.10;63.30
4406;DHT22;2216;53.806;11.598;2023-08-01T13:15:30;21.90;63.00
4406;DHT22;2216;53.806;11.598;2023-08-01T13:17:55;21.60;62.80
4406;DHT22;2216;53.806;11.598;2023-08-01T13:20:22;21.30;62.60
4406;DHT22;2216;53.806;11.598;2023-08-01T13:22:50;21.00;62.50
4406;DHT22;2216;53.806;11.598;2023-08-01T13:25:17;20.70;62.50
4406;DHT22;2216;53.806;11.598;2023-08-01T13:27:43;20.40;62.60
4406;DHT22;2216;53.806;11.598;2023-08-01T13:30:09;20.10;62.80
4406;DHT22;2216;53.806;11.598;2023-08-01T13:32:39;19.80;62.90
4406;DHT22;2216;53.806;11.598;2023-08-01T13:35:05;19.60;63.10
4406;DHT22;2216;53.806;11.598;2023-08-01T13:37:30;19.40;63.40
4406;DHT22;2216;53.806;11.598;2023-08-01T13:39:57;19.20;63.60
4406;DHT22;2216;53.806;11.598;2023-08-01T13:42:23;19.10;63.80
4406;DHT22;2216;53.806;11.598;2023-08-01T13:44:49;19.00;64.00
4406;DHT22;2216;53.806;11.598;2023-08-01T13:47:15;18.80;64.20
4406;DHT22;2216;53.806;11.598;2023-08-01T13:49:40;18.70;64.30
4406;DHT22;2216;53.806;11.598;2023-08-01T13:52:06;18.70;64.60
4406;DHT22;2216;53.806;11.598;2023-08-01T13:54:32;18.60;64.90
4406;DHT22;2216;53.806;11.598;2023-08-01T13:56:57;18.60;65.10
4406;DHT22;2216;53.806;11.598;2023-08-01T13:59:23;18.60;65.40
4406;DHT22;2216;53.806;11.598;2023-08-01T14:01:49;18.60;65.50
4406;DHT22;2216;53.806;11.598;2023-08-01T14:04:15;18.60;65.70
4406;DHT22;2216;53.806;11.598;2023-08-01T14:06:41;18.70;65.80
4406;DHT22;2216;53.806;11.598;2023-08-01T14:09:08;18.70;66.00
4406;DHT22;2216;53.806;11.598;2023-08-01T14:11:34;18.70;66.00
4406;DHT22;2216;53.806;11.598;2023-08-01T14:14:00;18.80;66.30
4406;DHT22;2216;53.806;11.598;2023-08-01T14:16:26;18.90;66.60
4406;DHT22;2216;53.806;11.598;2023-08-01T14:18:52;19.10;66.90
4406;DHT22;2216;53.806;11.598;2023-08-01T14:21:17;19.20;67.20
4406;DHT22;2216;53.806;11.598;2023-08-01T14:23:43;19.40;67.50
4406;DHT22;2216;53.806;11.598;2023-08-01T14:26:09;19.60;67.70
4406;DHT22;2216;53.806;11.598;2023-08-01T14:28:34;19.90;67.90
4406;DHT22;2216;53.806;11.598;2023-08-01T14:31:01;20.10;67.80
4406;DHT22;2216;53.806;11.598;2023-08-01T14:33:27;20.30;67.40
4406;DHT22;2216;53.806;11.598;2023-08-01T14:35:53;20.50;67.20
4406;DHT22;2216;53.806;11.598;2023-08-01T14:38:19;20.70;67.30
4406;DHT22;2216;53.806;11.598;2023-08-01T14:40:45;20.90;67.30
4406;DHT22;2216;53.806;11.598;2023-08-01T14:43:11;21.00;67.00
4406;DHT22;2216;53.806;11.598;2023-08-01T14:45:37;21.20;66.70
4406;DHT22;2216;53.806;11.598;2023-08-01T14:48:08;21.30;66.40
4406;DHT22;2216;53.806;11.598;2023-08-01T14:50:34;21.30;66.30
4406;DHT22;2216;53.806;11.598;2023-08-01T14:53:01;21.40;66.30
4406;DHT22;2216;53.806;11.598;2023-08-01T14:55:32;21.50;66.00
4406;DHT22;2216;53.806;11.598;2023-08-01T14:57:58;21.60;65.80
4406;DHT22;2216;53.806;11.598;2023-08-01T15:00:23;21.60;65.60
4406;DHT22;2216;53.806;11.598;2023-08-01T15:02:49;21.60;65.50
4406;DHT22;2216;53.806;11.598;2023-08-01T15:05:15;21.60;65.30
4406;DHT22;2216;53.806;11.598;2023-08-01T15:07:41;21.60;65.30
4406;DHT22;2216;53.806;11.598;2023-08-01T15:10:07;21.70;65.40
4406;DHT22;2216;53.806;11.598;2023-08-01T15:12:33;21.70;65.30
4406;DHT22;2216;53.806;11.598;2023-08-01T15:14:59;21.70;65.30
4406;DHT22;2216;53.806;11.598;2023-08-01T15:17:24;21.70;65.20
4406;DHT22;2216;53.806;11.598;2023-08-01T15:19:51;21.70;65.20
4406;DHT22;2216;53.806;11.598;2023-08-01T15:22:18;21.70;65.20
4406;DHT22;2216;53.806;11.598;2023-08-01T15:24:45;21.70;65.20
4406;DHT22;2216;53.806;11.598;2023-08-01T15:27:11;21.80;65.30
4406;DHT22;2216;53.806;11.598;2023-08-01T15:29:37;21.80;65.20
4406;DHT22;2216;53.806;11.598;2023-08-01T15:32:03;21.80;65.10
4406;DHT22;2216;53.806;11.598;2023-08-01T15:34:29;21.80;65.00
4406;DHT22;2216;53.806;11.598;2023-08-01T15:36:55;21.80;65.10
4406;DHT22;2216;53.806;11.598;2023-08-01T15:39:21;21.90;65.20
4406;DHT22;2216;53.806;11.598;2023-08-01T15:41:47;21.90;65.20
4406;DHT22;2216;53.806;11.598;2023-08-01T15:44:13;22.10;65.20
4406;DHT22;2216;53.806;11.598;2023-08-01T15:46:39;22.00;65.10
4406;DHT22;2216;53.806;11.598;2023-08-01T15:49:05;22.00;65.10
4406;DHT22;2216;53.806;11.598;2023-08-01T15:51:32;21.90;64.80
4406;DHT22;2216;53.806;11.598;2023-08-01T15:53:58;22.10;65.00